createdAt,value
2019-05-30T00:00:44.652Z,99537.88
2019-05-30T00:03:15.253Z,99529.48
2019-05-30T00:05:45.805Z,99535.61
2019-05-30T00:08:16.301Z,99539.02
2019-05-30T00:10:46.751Z,99538.52
2019-05-30T00:13:17.319Z,99535.11
2019-05-30T00:15:47.766Z,99533.34
2019-05-30T00:18:18.232Z,99545.14
2019-05-30T00:20:48.759Z,99549.83
2019-05-30T00:23:19.251Z,99543.78
2019-05-30T00:25:49.751Z,99558.11
2019-05-30T00:28:20.208Z,99551.55
2019-05-30T00:30:50.945Z,99556.30
2019-05-30T00:33:21.476Z,99556.69
2019-05-30T00:35:51.982Z,99558.07
2019-05-30T00:38:22.431Z,99560.25
2019-05-30T00:40:52.930Z,99559.61
2019-05-30T00:43:23.524Z,99567.76
2019-05-30T00:45:53.988Z,99563.56
2019-05-30T00:48:24.493Z,99564.25
2019-05-30T00:50:56.260Z,99558.11
2019-05-30T00:53:26.960Z,99566.27
2019-05-30T00:55:58.495Z,99568.70
2019-05-30T00:58:29.089Z,99568.97
2019-05-30T01:01:00.939Z,99577.23
2019-05-30T01:03:31.533Z,99575.48
2019-05-30T01:06:02.977Z,99576.58
2019-05-30T01:08:33.580Z,99577.78
2019-05-30T01:11:05.314Z,99580.27
2019-05-30T01:13:35.829Z,99575.83
2019-05-30T01:16:07.349Z,99575.92
2019-05-30T01:18:37.955Z,99583.63
2019-05-30T01:21:08.560Z,99599.50
2019-05-30T01:23:44.029Z,99588.83
2019-05-30T01:26:15.100Z,99597.97
2019-05-30T01:28:45.569Z,99602.38
2019-05-30T01:31:16.186Z,99596.75
2019-05-30T01:33:46.632Z,99596.35
2019-05-30T01:36:17.123Z,99603.09
2019-05-30T01:38:47.586Z,99605.86
2019-05-30T01:41:18.083Z,99606.72
2019-05-30T01:43:48.536Z,99611.45
2019-05-30T01:46:18.999Z,99604.63
2019-05-30T01:48:49.489Z,99603.13
2019-05-30T01:51:20.095Z,99609.98
2019-05-30T01:53:50.576Z,99611.97
2019-05-30T01:56:21.125Z,99616.03
2019-05-30T01:58:51.593Z,99622.98
2019-05-30T02:01:24.952Z,99624.12
2019-05-30T02:03:54.235Z,99626.61
2019-05-30T02:06:24.817Z,99630.14
2019-05-30T02:08:55.293Z,99632.92
2019-05-30T02:11:25.887Z,99633.58
2019-05-30T02:13:56.338Z,99635.89
2019-05-30T02:16:26.836Z,99639.72
2019-05-30T02:18:57.280Z,99635.44
2019-05-30T02:21:27.758Z,99639.42
2019-05-30T02:23:58.252Z,99638.37
2019-05-30T02:26:28.698Z,99637.89
2019-05-30T02:28:59.957Z,99646.70
2019-05-30T02:31:39.074Z,99650.70
2019-05-30T02:34:03.001Z,99648.73
2019-05-30T02:36:34.156Z,99647.06
2019-05-30T02:39:07.397Z,99642.27
2019-05-30T02:41:38.457Z,99644.64
2019-05-30T02:44:10.250Z,99650.37
2019-05-30T02:46:41.245Z,99644.66
2019-05-30T02:49:13.887Z,99642.83
2019-05-30T02:51:43.943Z,99644.14
2019-05-30T02:54:14.405Z,99639.30
2019-05-30T02:56:44.887Z,99634.03
2019-05-30T02:59:15.330Z,99637.14
2019-05-30T03:02:00.034Z,99645.27
2019-05-30T03:04:17.979Z,99655.26
2019-05-30T03:06:48.446Z,99657.28
2019-05-30T03:09:19.053Z,99657.20
2019-05-30T03:11:49.826Z,99659.34
2019-05-30T03:14:20.502Z,99660.02
2019-05-30T03:16:50.957Z,99661.20
2019-05-30T03:19:21.573Z,99674.31
2019-05-30T03:21:52.032Z,99678.59
2019-05-30T03:24:22.649Z,99682.52
2019-05-30T03:26:53.210Z,99685.27
2019-05-30T03:29:23.868Z,99689.70
2019-05-30T03:31:55.244Z,99697.61
2019-05-30T03:34:28.762Z,99695.81
2019-05-30T03:36:58.198Z,99700.66
2019-05-30T03:39:28.790Z,99696.55
2019-05-30T03:41:59.593Z,99708.00
2019-05-30T03:44:30.034Z,99712.86
2019-05-30T03:47:03.950Z,99713.84
2019-05-30T03:49:37.411Z,99714.55
2019-05-30T03:52:12.962Z,99720.58
2019-05-30T03:54:43.310Z,99728.11
2019-05-30T03:57:23.180Z,99724.74
2019-05-30T04:00:00.057Z,99725.98
2019-05-30T04:02:58.362Z,99725.22
2019-05-30T04:05:31.221Z,99724.64
2019-05-30T04:08:04.749Z,99731.03
2019-05-30T04:10:39.230Z,99728.72
2019-05-30T04:13:24.257Z,99735.73
2019-05-30T04:15:54.731Z,99739.45
2019-05-30T04:18:25.218Z,99748.50
2019-05-30T04:20:55.683Z,99744.03
2019-05-30T04:23:26.192Z,99747.33
2019-05-30T04:26:00.272Z,99757.49
2019-05-30T04:28:28.837Z,99762.38
2019-05-30T04:30:59.304Z,99753.58
2019-05-30T04:33:33.461Z,99753.31
2019-05-30T04:36:02.022Z,99773.47
2019-05-30T04:38:32.487Z,99768.36
2019-05-30T04:41:03.013Z,99760.73
2019-05-30T04:43:33.491Z,99768.81
2019-05-30T04:46:03.992Z,99768.05
2019-05-30T04:48:34.484Z,99766.81
2019-05-30T04:51:05.192Z,99775.16
2019-05-30T04:53:35.703Z,99775.10
2019-05-30T04:56:06.296Z,99774.41
2019-05-30T04:58:41.505Z,99781.69
2019-05-30T05:01:09.150Z,99771.91
2019-05-30T05:03:45.722Z,99778.88
2019-05-30T05:06:13.786Z,99781.28
2019-05-30T05:08:44.671Z,99770.97
2019-05-30T05:11:18.704Z,99793.34
2019-05-30T05:13:47.426Z,99794.52
2019-05-30T05:16:26.090Z,99785.61
2019-05-30T05:18:50.084Z,99778.58
2019-05-30T05:21:21.016Z,99786.86
2019-05-30T05:23:51.549Z,99793.69
2019-05-30T05:26:22.075Z,99800.52
2019-05-30T05:28:52.580Z,99804.09
2019-05-30T05:31:24.433Z,99807.05
2019-05-30T05:33:57.011Z,99650.33
2019-05-30T05:36:27.162Z,99808.07
2019-05-30T05:38:57.674Z,99810.64
2019-05-30T05:41:28.612Z,99819.17
2019-05-30T05:43:59.126Z,99809.69
2019-05-30T05:46:29.602Z,99811.91
2019-05-30T05:49:00.205Z,99815.34
2019-05-30T05:51:30.744Z,99821.45
2019-05-30T05:54:01.230Z,99810.05
2019-05-30T05:56:31.756Z,99813.36
2019-05-30T05:59:02.261Z,99812.22
2019-05-30T06:01:32.753Z,99809.14
2019-05-30T06:04:12.805Z,99613.13
2019-05-30T06:06:35.508Z,99814.96
2019-05-30T06:09:06.830Z,99808.20
2019-05-30T06:11:37.330Z,99817.42
2019-05-30T06:14:07.785Z,99819.41
2019-05-30T06:16:38.408Z,99811.09
2019-05-30T06:19:09.022Z,99729.35
2019-05-30T06:21:52.982Z,99818.95
2019-05-30T06:24:11.833Z,99825.49
2019-05-30T06:26:42.335Z,99831.45
2019-05-30T06:29:12.852Z,99830.70
2019-05-30T06:31:43.328Z,99830.17
2019-05-30T06:34:28.148Z,99832.87
2019-05-30T06:36:45.996Z,99833.55
2019-05-30T06:39:16.456Z,99829.91
2019-05-30T06:41:46.966Z,99835.95
2019-05-30T06:44:17.430Z,99830.05
2019-05-30T06:46:47.950Z,99829.20
2019-05-30T06:49:18.430Z,99831.61
2019-05-30T06:51:48.915Z,99838.59
2019-05-30T06:54:19.405Z,99835.92
2019-05-30T06:56:50.023Z,99836.17
2019-05-30T06:59:21.391Z,99839.76
2019-05-30T07:01:52.387Z,99827.23
2019-05-30T07:04:23.823Z,99827.34
2019-05-30T07:06:55.346Z,99834.64
2019-05-30T07:09:26.816Z,99831.16
2019-05-30T07:11:57.426Z,99826.77
2019-05-30T07:14:29.233Z,99827.69
2019-05-30T07:16:59.874Z,99832.93
2019-05-30T07:19:31.567Z,99839.83
2019-05-30T07:22:02.238Z,99833.14
2019-05-30T07:24:33.750Z,99828.91
2019-05-30T07:27:04.608Z,99823.78
2019-05-30T07:29:35.116Z,99820.09
2019-05-30T07:32:05.812Z,99838.10
2019-05-30T07:34:36.525Z,99838.10
2019-05-30T07:37:06.977Z,99710.95
2019-05-30T07:39:37.708Z,99826.89
2019-05-30T07:42:08.332Z,99828.19
2019-05-30T07:44:38.796Z,99828.19
2019-05-30T07:47:09.512Z,99832.09
2019-05-30T07:49:40.021Z,99833.59
2019-05-30T07:52:11.771Z,99840.25
2019-05-30T07:54:42.425Z,99839.09
2019-05-30T07:57:12.909Z,99837.22
2019-05-30T07:59:43.382Z,99825.37
2019-05-30T08:02:13.889Z,99825.37
2019-05-30T08:04:46.876Z,99833.84
2019-05-30T08:07:16.597Z,99835.37
2019-05-30T08:09:47.185Z,99829.55
2019-05-30T08:12:17.661Z,99826.42
2019-05-30T08:14:49.697Z,99830.80
2019-05-30T08:17:20.159Z,99821.59
2019-05-30T08:19:50.685Z,99821.59
2019-05-30T08:22:21.200Z,99833.00
2019-05-30T08:24:51.699Z,99833.32
2019-05-30T08:27:22.171Z,99831.48
2019-05-30T08:29:52.700Z,99828.61
2019-05-30T08:32:23.269Z,99823.95
2019-05-30T08:34:53.777Z,99824.45
2019-05-30T08:37:24.516Z,99819.53
2019-05-30T08:39:55.155Z,99817.36
2019-05-30T08:42:27.885Z,99813.88
2019-05-30T08:44:57.863Z,99809.52
2019-05-30T08:47:29.714Z,99798.13
2019-05-30T08:50:00.340Z,99802.94
2019-05-30T08:52:32.305Z,99815.18
2019-05-30T08:55:02.885Z,99821.73
2019-05-30T08:57:34.920Z,99809.03
2019-05-30T09:00:07.034Z,99812.60
2019-05-30T09:02:38.693Z,99809.00
2019-05-30T09:05:10.022Z,99819.86
2019-05-30T09:07:40.542Z,99807.05
2019-05-30T09:10:11.758Z,99818.70
2019-05-30T09:12:45.515Z,99807.16
2019-05-30T09:15:15.253Z,99803.42
2019-05-30T09:17:46.783Z,99810.41
2019-05-30T09:20:17.858Z,99708.88
2019-05-30T09:22:48.359Z,99797.09
2019-05-30T09:25:19.372Z,99809.07
2019-05-30T09:27:49.883Z,99811.21
2019-05-30T09:30:22.545Z,99810.79
2019-05-30T09:32:53.026Z,99806.50
2019-05-30T09:35:23.728Z,99801.34
2019-05-30T09:37:54.188Z,99798.56
2019-05-30T09:40:25.319Z,99802.83
2019-05-30T09:42:55.810Z,99802.67
2019-05-30T09:45:26.636Z,99796.84
2019-05-30T09:47:57.122Z,99789.31
2019-05-30T09:50:27.804Z,99797.80
2019-05-30T09:52:58.302Z,99799.45
2019-05-30T09:55:29.038Z,99794.80
2019-05-30T09:57:59.620Z,99793.81
2019-05-30T10:00:32.432Z,99788.73
2019-05-30T10:03:03.024Z,99796.30
2019-05-30T10:05:33.578Z,99798.23
2019-05-30T10:08:04.060Z,99795.95
2019-05-30T10:10:34.738Z,99795.60
2019-05-30T10:13:05.358Z,99798.23
2019-05-30T10:15:35.933Z,99795.87
2019-05-30T10:18:06.554Z,99793.99
2019-05-30T10:20:38.221Z,99799.23
2019-05-30T10:23:08.743Z,99788.15
2019-05-30T10:25:39.196Z,99795.31
2019-05-30T10:28:09.710Z,99789.36
2019-05-30T10:30:40.302Z,99797.69
2019-05-30T10:33:10.774Z,99790.05
2019-05-30T10:35:41.297Z,99794.00
2019-05-30T10:38:11.764Z,99798.71
2019-05-30T10:40:42.413Z,99789.32
2019-05-30T10:43:12.883Z,99793.73
2019-05-30T10:45:43.419Z,99793.77
2019-05-30T10:48:14.000Z,99790.33
2019-05-30T10:50:44.615Z,99786.69
2019-05-30T10:53:15.284Z,99789.37
2019-05-30T10:55:47.067Z,99792.08
2019-05-30T10:58:18.112Z,99787.39
2019-05-30T11:00:53.477Z,99776.70
2019-05-30T11:03:25.629Z,99772.73
2019-05-30T11:06:14.763Z,99781.33
2019-05-30T11:08:46.188Z,99779.83
2019-05-30T11:11:18.265Z,99780.13
2019-05-30T11:13:48.999Z,99785.91
2019-05-30T11:16:19.462Z,99784.83
2019-05-30T11:18:51.394Z,99783.20
2019-05-30T11:21:22.264Z,99771.55
2019-05-30T11:23:52.767Z,99772.70
2019-05-30T11:26:23.235Z,99772.01
2019-05-30T11:28:54.782Z,99775.45
2019-05-30T11:31:25.298Z,99772.09
2019-05-30T11:33:57.155Z,99767.71
2019-05-30T11:36:27.655Z,99760.91
2019-05-30T11:38:59.397Z,99765.22
2019-05-30T11:41:29.984Z,99765.73
2019-05-30T11:44:03.967Z,99772.84
2019-05-30T11:46:32.709Z,99765.30
2019-05-30T11:49:03.573Z,99761.00
2019-05-30T11:51:34.081Z,99754.00
2019-05-30T11:54:05.024Z,99739.77
2019-05-30T11:56:36.025Z,99747.34
2019-05-30T11:59:06.979Z,99751.00
2019-05-30T12:01:37.483Z,99744.41
2019-05-30T12:04:07.950Z,99737.17
2019-05-30T12:06:38.471Z,99744.50
2019-05-30T12:09:09.468Z,99739.45
2019-05-30T12:11:39.976Z,99736.89
2019-05-30T12:14:10.484Z,99742.43
2019-05-30T12:16:40.940Z,99734.03
2019-05-30T12:19:11.869Z,99731.00
2019-05-30T12:21:42.997Z,99734.29
2019-05-30T12:24:13.459Z,99722.77
2019-05-30T12:26:43.958Z,99727.44
2019-05-30T12:29:14.488Z,99731.36
2019-05-30T12:31:45.094Z,99730.37
2019-05-30T12:34:15.557Z,99727.37
2019-05-30T12:36:46.072Z,99718.61
2019-05-30T12:39:16.552Z,99722.11
2019-05-30T12:41:47.064Z,99713.50
2019-05-30T12:44:17.572Z,99713.23
2019-05-30T12:46:48.069Z,99709.29
2019-05-30T12:49:19.283Z,99708.55
2019-05-30T12:51:50.451Z,99701.14
2019-05-30T12:54:21.463Z,99698.73
2019-05-30T12:56:52.602Z,99690.46
2019-05-30T12:59:23.273Z,99686.11
2019-05-30T13:01:54.801Z,99677.70
2019-05-30T13:04:25.397Z,99689.19
2019-05-30T13:06:57.593Z,99689.52
2019-05-30T13:09:28.157Z,99703.87
2019-05-30T13:11:58.647Z,99690.61
2019-05-30T13:14:29.203Z,99686.45
2019-05-30T13:16:59.865Z,99687.92
2019-05-30T13:19:30.329Z,99682.39
2019-05-30T13:22:01.382Z,99677.70
2019-05-30T13:24:32.103Z,99679.84
2019-05-30T13:27:03.786Z,99682.74
2019-05-30T13:29:34.441Z,99684.52
2019-05-30T13:32:05.183Z,99690.70
2019-05-30T13:34:35.758Z,99691.89
2019-05-30T13:37:07.176Z,99693.82
2019-05-30T13:39:37.715Z,99693.97
2019-05-30T13:42:08.205Z,99688.89
2019-05-30T13:44:38.801Z,99692.11
2019-05-30T13:47:09.374Z,99688.59
2019-05-30T13:49:39.858Z,99685.53
2019-05-30T13:52:11.249Z,99689.08
2019-05-30T13:54:41.734Z,99687.06
2019-05-30T13:57:12.212Z,99678.52
2019-05-30T13:59:42.672Z,99679.48
2019-05-30T14:02:13.176Z,99680.23
2019-05-30T14:04:43.700Z,99679.63
2019-05-30T14:07:15.594Z,99675.11
2019-05-30T14:09:46.161Z,99680.58
2019-05-30T14:12:16.692Z,99677.06
2019-05-30T14:14:47.176Z,99684.42
2019-05-30T14:17:17.717Z,99677.42
2019-05-30T14:19:48.280Z,99682.94
2019-05-30T14:22:18.788Z,99680.97
2019-05-30T14:24:49.303Z,99671.85
2019-05-30T14:27:19.932Z,99677.73
2019-05-30T14:29:50.420Z,99666.55
2019-05-30T14:32:21.046Z,99669.67
2019-05-30T14:34:51.553Z,99678.70
2019-05-30T14:37:22.076Z,99676.88
2019-05-30T14:39:52.538Z,99676.03
2019-05-30T14:42:23.037Z,99671.94
2019-05-30T14:44:53.530Z,99674.22
2019-05-30T14:47:23.980Z,99669.94
2019-05-30T14:49:54.439Z,99658.13
2019-05-30T14:52:24.949Z,99655.70
2019-05-30T14:54:55.445Z,99658.80
2019-05-30T14:57:25.921Z,99652.85
2019-05-30T14:59:56.420Z,99551.70
2019-05-30T15:02:26.921Z,99653.20
2019-05-30T15:04:57.415Z,99656.59
2019-05-30T15:07:27.873Z,99652.02
2019-05-30T15:09:58.385Z,99649.31
2019-05-30T15:12:28.844Z,99641.56
2019-05-30T15:14:59.333Z,99647.80
2019-05-30T15:17:29.788Z,99650.28
2019-05-30T15:20:00.280Z,99648.27
2019-05-30T15:22:30.739Z,99645.02
2019-05-30T15:25:01.260Z,99641.13
2019-05-30T15:27:31.747Z,99643.89
2019-05-30T15:30:02.272Z,99641.48
2019-05-30T15:32:32.788Z,99644.56
2019-05-30T15:35:03.256Z,99647.72
2019-05-30T15:37:33.715Z,99641.33
2019-05-30T15:40:04.275Z,99642.49
2019-05-30T15:42:34.755Z,99634.13
2019-05-30T15:45:06.061Z,99634.63
2019-05-30T15:47:36.511Z,99642.75
2019-05-30T15:50:08.319Z,99637.58
2019-05-30T15:52:39.133Z,99635.22
2019-05-30T15:55:11.177Z,99640.38
2019-05-30T15:57:41.855Z,99637.87
2019-05-30T16:00:14.092Z,99633.34
2019-05-30T16:02:44.785Z,99634.91
2019-05-30T16:05:16.694Z,99631.08
2019-05-30T16:07:47.303Z,99634.98
2019-05-30T16:10:18.973Z,99640.66
2019-05-30T16:12:49.451Z,99636.19
2019-05-30T16:15:19.940Z,99643.61
2019-05-30T16:17:50.491Z,99633.75
2019-05-30T16:20:22.037Z,99634.14
2019-05-30T16:22:52.554Z,99630.95
2019-05-30T16:25:23.018Z,99634.11
2019-05-30T16:27:53.512Z,99634.94
2019-05-30T16:30:26.048Z,99635.65
2019-05-30T16:32:56.461Z,99638.29
2019-05-30T16:35:26.919Z,99634.23
2019-05-30T16:37:57.412Z,99632.11
2019-05-30T16:40:27.868Z,99632.93
2019-05-30T16:42:58.454Z,99627.34
2019-05-30T16:45:28.904Z,99627.34
2019-05-30T16:47:59.367Z,99621.91
2019-05-30T16:50:29.853Z,99618.59
2019-05-30T16:53:00.308Z,99618.88
2019-05-30T16:55:30.809Z,99611.98
2019-05-30T16:58:01.363Z,99605.59
2019-05-30T17:00:31.821Z,99605.33
2019-05-30T17:03:02.308Z,99605.33
2019-05-30T17:05:32.776Z,99605.95
2019-05-30T17:08:03.239Z,99605.95
2019-05-30T17:10:33.859Z,99605.92
2019-05-30T17:13:04.419Z,99616.48
2019-05-30T17:15:35.007Z,99598.53
2019-05-30T17:18:05.755Z,99598.53
2019-05-30T17:20:36.243Z,99600.43
2019-05-30T17:23:06.718Z,99596.39
2019-05-30T17:25:37.198Z,99601.02
2019-05-30T17:28:07.662Z,99599.09
2019-05-30T17:30:38.157Z,99612.95
2019-05-30T17:33:08.596Z,99611.20
2019-05-30T17:35:39.200Z,99618.17
2019-05-30T17:38:09.647Z,99622.36
2019-05-30T17:40:45.055Z,99644.48
2019-05-30T17:43:12.322Z,99650.87
2019-05-30T17:45:42.830Z,99653.50
2019-05-30T17:48:16.533Z,99678.24
2019-05-30T17:50:45.496Z,99683.95
2019-05-30T17:53:16.231Z,99691.56
2019-05-30T17:55:46.704Z,99700.45
2019-05-30T17:58:17.215Z,99712.14
2019-05-30T18:00:47.700Z,99687.27
2019-05-30T18:03:18.257Z,99697.77
2019-05-30T18:05:48.737Z,99693.98
2019-05-30T18:08:19.202Z,99721.38
2019-05-30T18:10:53.775Z,99733.80
2019-05-30T18:13:22.829Z,99747.92
2019-05-30T18:15:53.532Z,99762.08
2019-05-30T18:18:25.205Z,99734.41
2019-05-30T18:20:55.812Z,99752.83
2019-05-30T18:23:27.499Z,99738.59
2019-05-30T18:25:58.021Z,99730.62
2019-05-30T18:28:27.829Z,99745.39
2019-05-30T18:30:58.309Z,99745.64
2019-05-30T18:33:28.752Z,99759.36
2019-05-30T18:35:59.868Z,99752.27
2019-05-30T18:38:30.542Z,99759.37
2019-05-30T18:41:11.040Z,99752.64
2019-05-30T18:43:33.358Z,99759.32
2019-05-30T18:46:03.859Z,99758.31
2019-05-30T18:48:34.314Z,99757.98
2019-05-30T18:51:04.920Z,99765.36
2019-05-30T18:53:36.645Z,99778.14
2019-05-30T18:56:07.392Z,99781.74
2019-05-30T18:58:37.895Z,99793.22
2019-05-30T19:01:08.404Z,99788.31
2019-05-30T19:03:38.883Z,99812.42
2019-05-30T19:06:09.497Z,99819.21
2019-05-30T19:08:39.973Z,99817.45
2019-05-30T19:11:26.383Z,99829.62
2019-05-30T19:13:42.603Z,99827.92
2019-05-30T19:16:13.093Z,99828.00
2019-05-30T19:18:43.536Z,99830.15
2019-05-30T19:21:14.025Z,99822.38
2019-05-30T19:23:44.488Z,99816.48
2019-05-30T19:26:14.982Z,99821.86
2019-05-30T19:28:45.430Z,99820.39
2019-05-30T19:31:16.022Z,99818.09
2019-05-30T19:33:46.468Z,99826.03
2019-05-30T19:36:17.045Z,99829.22
2019-05-30T19:38:47.496Z,99835.06
2019-05-30T19:41:17.976Z,99839.25
2019-05-30T19:43:48.440Z,99840.98
2019-05-30T19:46:18.936Z,99848.34
2019-05-30T19:48:49.401Z,99845.81
2019-05-30T19:51:21.090Z,99840.48
2019-05-30T19:53:51.655Z,99844.84
2019-05-30T19:56:22.167Z,99834.28
2019-05-30T19:58:52.696Z,99845.34
2019-05-30T20:01:23.196Z,99848.89
2019-05-30T20:03:53.650Z,99848.08
2019-05-30T20:06:24.977Z,99861.09
2019-05-30T20:08:56.133Z,99868.34
2019-05-30T20:11:26.627Z,99881.56
2019-05-30T20:13:57.073Z,99873.73
2019-05-30T20:16:27.533Z,99883.02
2019-05-30T20:18:58.022Z,99884.14
2019-05-30T20:21:28.516Z,99881.21
2019-05-30T20:23:59.627Z,99882.45
2019-05-30T20:26:30.241Z,99879.37
2019-05-30T20:29:00.731Z,99883.80
2019-05-30T20:31:31.211Z,99891.19
2019-05-30T20:34:01.702Z,99883.61
2019-05-30T20:36:32.149Z,99873.64
2019-05-30T20:39:02.645Z,99876.15
2019-05-30T20:41:33.150Z,99872.48
2019-05-30T20:44:03.709Z,99865.55
2019-05-30T20:46:34.837Z,99867.10
2019-05-30T20:49:07.022Z,99871.98
2019-05-30T20:51:38.679Z,99876.83
2019-05-30T20:54:09.689Z,99880.22
2019-05-30T20:56:41.437Z,99889.45
2019-05-30T20:59:12.011Z,99889.45
2019-05-30T21:01:43.771Z,99886.56
2019-05-30T21:04:14.312Z,99876.77
2019-05-30T21:06:45.531Z,99879.36
2019-05-30T21:09:28.357Z,99879.48
2019-05-30T21:11:51.724Z,99881.78
2019-05-30T21:14:27.430Z,99882.55
2019-05-30T21:16:56.768Z,99887.15
2019-05-30T21:19:27.216Z,99888.45
2019-05-30T21:21:57.631Z,99889.10
2019-05-30T21:24:28.182Z,99901.50
2019-05-30T21:26:58.590Z,99908.03
2019-05-30T21:29:29.052Z,99902.63
2019-05-30T21:31:59.499Z,99904.37
2019-05-30T21:34:30.013Z,99905.22
2019-05-30T21:37:00.427Z,99915.75
2019-05-30T21:39:31.123Z,99911.09
2019-05-30T21:42:01.568Z,99907.98
2019-05-30T21:44:31.986Z,99912.84
2019-05-30T21:47:02.441Z,99913.28
2019-05-30T21:49:32.872Z,99907.52
2019-05-30T21:52:03.278Z,99902.50
2019-05-30T21:54:33.686Z,99891.17
2019-05-30T21:57:04.194Z,99891.44
2019-05-30T21:59:34.735Z,99892.63
2019-05-30T22:02:05.287Z,99887.81
2019-05-30T22:04:35.790Z,99885.88
2019-05-30T22:07:06.210Z,99879.50
2019-05-30T22:09:36.636Z,99877.04
2019-05-30T22:12:07.186Z,99881.70
2019-05-30T22:14:37.686Z,99876.27
2019-05-30T22:17:08.186Z,99876.45
2019-05-30T22:19:38.651Z,99877.53
2019-05-30T22:22:09.120Z,99874.27
2019-05-30T22:24:39.544Z,99880.70
2019-05-30T22:27:10.050Z,99887.45
2019-05-30T22:29:40.609Z,99890.73
2019-05-30T22:32:11.088Z,99897.78
2019-05-30T22:34:42.729Z,99885.27
2019-05-30T22:37:14.271Z,99880.83
2019-05-30T22:39:44.887Z,99879.86
2019-05-30T22:42:15.287Z,99887.42
2019-05-30T22:44:46.041Z,99883.05
2019-05-30T22:47:16.535Z,99876.32
2019-05-30T22:49:46.933Z,99879.19
2019-05-30T22:52:17.457Z,99876.08
2019-05-30T22:54:49.000Z,99876.19
2019-05-30T22:57:19.713Z,99883.13
2019-05-30T22:59:50.961Z,99885.97
2019-05-30T23:02:21.472Z,99890.56
2019-05-30T23:04:52.276Z,99891.08
2019-05-30T23:07:22.786Z,99895.69
2019-05-30T23:09:53.993Z,99904.52
2019-05-30T23:12:24.522Z,99897.91
2019-05-30T23:14:54.983Z,99895.00
2019-05-30T23:17:25.494Z,99895.64
2019-05-30T23:19:56.871Z,99898.61
2019-05-30T23:22:27.352Z,99897.41
2019-05-30T23:24:57.831Z,99888.09
2019-05-30T23:27:28.283Z,99891.57
2019-05-30T23:29:58.758Z,99892.09
2019-05-30T23:32:29.237Z,99896.70
2019-05-30T23:34:59.699Z,99893.97
2019-05-30T23:37:30.157Z,99896.30
2019-05-30T23:40:00.660Z,99897.12
2019-05-30T23:42:31.143Z,99905.64
2019-05-30T23:45:01.606Z,99899.38
2019-05-30T23:47:32.180Z,99900.00
2019-05-30T23:50:02.724Z,99897.16
2019-05-30T23:52:33.171Z,99902.61
2019-05-30T23:55:03.761Z,99909.11
2019-05-30T23:57:34.202Z,99912.33
